sensor_id;sensor_type;location;lat;lon;timestamp;pressure;altitude;pressure_sealevel;temperature;humidity
65376;BME280;51976;47.332;9.404;2023-01-26T00:01:26;93005.47;;;19.38;30.18
65376;BME280;51976;47.332;9.404;2023-01-26T00:03:53;93001.94;;;19.38;29.95
65376;BME280;51976;47.332;9.404;2023-01-26T00:06:20;93004.22;;;19.36;30.19
65376;BME280;51976;47.332;9.404;2023-01-26T00:08:48;93004.53;;;19.34;30.01
65376;BME280;51976;47.332;9.404;2023-01-26T00:11:17;92997.16;;;19.35;30.06
65376;BME280;51976;47.332;9.404;2023-01-26T00:13:43;92996.00;;;19.36;29.78
65376;BME280;51976;47.332;9.404;2023-01-26T00:16:11;92992.94;;;19.37;30.08
65376;BME280;51976;47.332;9.404;2023-01-26T00:18:38;92983.47;;;19.35;30.00
65376;BME280;51976;47.332;9.404;2023-01-26T00:21:05;92977.88;;;19.31;29.90
65376;BME280;51976;47.332;9.404;2023-01-26T00:23:32;92980.75;;;19.35;29.80
65376;BME280;51976;47.332;9.404;2023-01-26T00:25:57;92974.81;;;19.33;30.02
65376;BME280;51976;47.332;9.404;2023-01-26T00:28:23;92975.94;;;19.32;30.03
65376;BME280;51976;47.332;9.404;2023-01-26T00:30:48;92975.59;;;19.33;29.85
65376;BME280;51976;47.332;9.404;2023-01-26T00:33:14;92968.88;;;19.31;29.98
65376;BME280;51976;47.332;9.404;2023-01-26T00:35:40;92970.81;;;19.30;29.89
65376;BME280;51976;47.332;9.404;2023-01-26T00:38:11;92970.00;;;19.30;30.12
65376;BME280;51976;47.332;9.404;2023-01-26T00:40:37;92959.88;;;19.30;30.08
65376;BME280;51976;47.332;9.404;2023-01-26T00:43:03;92960.66;;;19.31;30.09
65376;BME280;51976;47.332;9.404;2023-01-26T00:45:28;92958.28;;;19.29;30.06
65376;BME280;51976;47.332;9.404;2023-01-26T00:47:54;92965.81;;;19.32;30.03
65376;BME280;51976;47.332;9.404;2023-01-26T00:50:19;92954.41;;;19.30;30.01
65376;BME280;51976;47.332;9.404;2023-01-26T00:52:44;92956.81;;;19.32;29.73
65376;BME280;51976;47.332;9.404;2023-01-26T00:55:10;92960.66;;;19.31;30.06
65376;BME280;51976;47.332;9.404;2023-01-26T00:57:35;92963.41;;;19.31;29.87
65376;BME280;51976;47.332;9.404;2023-01-26T01:00:00;92957.47;;;19.28;29.87
65376;BME280;51976;47.332;9.404;2023-01-26T01:02:26;92962.13;;;19.28;30.17
65376;BME280;51976;47.332;9.404;2023-01-26T01:04:51;92959.72;;;19.26;30.09
65376;BME280;51976;47.332;9.404;2023-01-26T01:07:17;92957.47;;;19.28;30.00
65376;BME280;51976;47.332;9.404;2023-01-26T01:09:44;92963.28;;;19.27;29.77
65376;BME280;51976;47.332;9.404;2023-01-26T01:12:10;92967.59;;;19.28;29.80
65376;BME280;51976;47.332;9.404;2023-01-26T01:14:36;92964.72;;;19.24;29.96
65376;BME280;51976;47.332;9.404;2023-01-26T01:17:02;92961.66;;;19.26;30.03
65376;BME280;51976;47.332;9.404;2023-01-26T01:19:27;92969.06;;;19.25;29.97
65376;BME280;51976;47.332;9.404;2023-01-26T01:21:52;92969.06;;;19.25;29.96
65376;BME280;51976;47.332;9.404;2023-01-26T01:24:18;92972.94;;;19.24;29.88
65376;BME280;51976;47.332;9.404;2023-01-26T01:26:43;92963.94;;;19.24;29.59
65376;BME280;51976;47.332;9.404;2023-01-26T01:29:12;92982.25;;;19.23;29.98
65376;BME280;51976;47.332;9.404;2023-01-26T01:31:37;92980.00;;;19.25;29.99
65376;BME280;51976;47.332;9.404;2023-01-26T01:34:03;92977.25;;;19.25;29.96
65376;BME280;51976;47.332;9.404;2023-01-26T01:36:28;92975.34;;;19.26;29.80
65376;BME280;51976;47.332;9.404;2023-01-26T01:38:55;92981.94;;;19.25;29.89
65376;BME280;51976;47.332;9.404;2023-01-26T01:41:20;92980.31;;;19.24;29.81
65376;BME280;51976;47.332;9.404;2023-01-26T01:43:47;92975.34;;;19.26;30.28
65376;BME280;51976;47.332;9.404;2023-01-26T01:46:31;92972.94;;;19.24;30.11
65376;BME280;51976;47.332;9.404;2023-01-26T01:49:02;92973.72;;;19.25;30.00
65376;BME280;51976;47.332;9.404;2023-01-26T01:51:36;92965.06;;;19.23;29.81
65376;BME280;51976;47.332;9.404;2023-01-26T01:54:07;92967.47;;;19.24;29.77
65376;BME280;51976;47.332;9.404;2023-01-26T01:56:35;92963.47;;;19.22;29.83
65376;BME280;51976;47.332;9.404;2023-01-26T01:59:05;92953.31;;;19.22;30.07
65376;BME280;51976;47.332;9.404;2023-01-26T02:01:32;92948.53;;;19.19;29.81
65376;BME280;51976;47.332;9.404;2023-01-26T02:04:00;92951.06;;;19.24;29.94
65376;BME280;51976;47.332;9.404;2023-01-26T02:06:41;92946.25;;;19.21;29.74
65376;BME280;51976;47.332;9.404;2023-01-26T02:09:09;92951.72;;;19.21;29.84
65376;BME280;51976;47.332;9.404;2023-01-26T02:11:55;92957.53;;;19.20;29.79
65376;BME280;51976;47.332;9.404;2023-01-26T02:14:23;92954.78;;;19.20;30.16
65376;BME280;51976;47.332;9.404;2023-01-26T02:16:49;92950.94;;;19.21;29.67
65376;BME280;51976;47.332;9.404;2023-01-26T02:19:25;92942.41;;;19.22;29.92
65376;BME280;51976;47.332;9.404;2023-01-26T02:21:53;92948.66;;;19.23;29.91
65376;BME280;51976;47.332;9.404;2023-01-26T02:24:25;92945.47;;;19.21;29.94
65376;BME280;51976;47.332;9.404;2023-01-26T02:26:52;92943.06;;;19.19;29.81
65376;BME280;51976;47.332;9.404;2023-01-26T02:29:18;92937.59;;;19.19;29.88
65376;BME280;51976;47.332;9.404;2023-01-26T02:31:45;92930.19;;;19.20;29.95
65376;BME280;51976;47.332;9.404;2023-01-26T02:34:10;92926.81;;;19.23;29.80
65376;BME280;51976;47.332;9.404;2023-01-26T02:36:36;92924.72;;;19.20;29.78
65376;BME280;51976;47.332;9.404;2023-01-26T02:39:22;92921.19;;;19.19;29.73
65376;BME280;51976;47.332;9.404;2023-01-26T02:41:51;92919.13;;;19.16;29.84
65376;BME280;51976;47.332;9.404;2023-01-26T02:44:38;92919.59;;;19.18;29.98
65376;BME280;51976;47.332;9.404;2023-01-26T02:47:12;92919.13;;;19.16;29.73
65376;BME280;51976;47.332;9.404;2023-01-26T02:49:38;92914.13;;;19.18;29.83
65376;BME280;51976;47.332;9.404;2023-01-26T02:52:16;92912.53;;;19.17;29.88
65376;BME280;51976;47.332;9.404;2023-01-26T02:54:42;92907.88;;;19.18;29.76
65376;BME280;51976;47.332;9.404;2023-01-26T02:57:27;92898.41;;;19.15;29.92
65376;BME280;51976;47.332;9.404;2023-01-26T02:59:53;92899.19;;;19.16;29.73
65376;BME280;51976;47.332;9.404;2023-01-26T03:02:19;92899.19;;;19.16;29.73
65376;BME280;51976;47.332;9.404;2023-01-26T03:04:44;92897.25;;;19.16;29.88
65376;BME280;51976;47.332;9.404;2023-01-26T03:07:09;92894.09;;;19.14;29.82
65376;BME280;51976;47.332;9.404;2023-01-26T03:09:35;92880.88;;;19.16;29.83
65376;BME280;51976;47.332;9.404;2023-01-26T03:12:01;92883.94;;;19.15;29.72
65376;BME280;51976;47.332;9.404;2023-01-26T03:14:26;92888.72;;;19.18;29.70
65376;BME280;51976;47.332;9.404;2023-01-26T03:16:52;92883.94;;;19.15;29.69
65376;BME280;51976;47.332;9.404;2023-01-26T03:19:17;92879.28;;;19.15;29.76
65376;BME280;51976;47.332;9.404;2023-01-26T03:22:02;92872.66;;;19.16;29.69
65376;BME280;51976;47.332;9.404;2023-01-26T03:24:47;92876.22;;;19.17;29.98
65376;BME280;51976;47.332;9.404;2023-01-26T03:27:47;92871.06;;;19.15;29.89
65376;BME280;51976;47.332;9.404;2023-01-26T03:30:16;92871.06;;;19.15;29.70
65376;BME280;51976;47.332;9.404;2023-01-26T03:32:41;92875.41;;;19.16;29.82
65376;BME280;51976;47.332;9.404;2023-01-26T03:35:08;92874.97;;;19.14;29.67
65376;BME280;51976;47.332;9.404;2023-01-26T03:37:41;92874.16;;;19.14;29.86
65376;BME280;51976;47.332;9.404;2023-01-26T03:40:08;92866.78;;;19.14;29.92
65376;BME280;51976;47.332;9.404;2023-01-26T03:42:54;92859.72;;;19.13;29.63
65376;BME280;51976;47.332;9.404;2023-01-26T03:45:40;92853.09;;;19.14;29.62
65376;BME280;51976;47.332;9.404;2023-01-26T03:48:25;92853.09;;;19.14;29.78
65376;BME280;51976;47.332;9.404;2023-01-26T03:51:10;92854.25;;;19.13;29.66
65376;BME280;51976;47.332;9.404;2023-01-26T03:53:56;92845.69;;;19.15;29.85
65376;BME280;51976;47.332;9.404;2023-01-26T03:56:41;92849.22;;;19.15;29.88
65376;BME280;51976;47.332;9.404;2023-01-26T03:59:07;92855.03;;;19.14;29.61
65376;BME280;51976;47.332;9.404;2023-01-26T04:01:37;92851.16;;;19.15;29.91
65376;BME280;51976;47.332;9.404;2023-01-26T04:04:05;92854.69;;;19.15;30.03
65376;BME280;51976;47.332;9.404;2023-01-26T04:06:51;92855.47;;;19.16;30.02
65376;BME280;51976;47.332;9.404;2023-01-26T04:09:37;92853.09;;;19.14;29.88
65376;BME280;51976;47.332;9.404;2023-01-26T04:12:04;92853.09;;;19.14;29.66
65376;BME280;51976;47.332;9.404;2023-01-26T04:14:29;92851.50;;;19.13;30.05
65376;BME280;51976;47.332;9.404;2023-01-26T04:17:15;92846.38;;;19.12;29.86
65376;BME280;51976;47.332;9.404;2023-01-26T04:20:00;92842.84;;;19.11;29.70
65376;BME280;51976;47.332;9.404;2023-01-26T04:22:46;92841.72;;;19.12;29.80
65376;BME280;51976;47.332;9.404;2023-01-26T04:25:18;92844.44;;;19.12;29.92
65376;BME280;51976;47.332;9.404;2023-01-26T04:27:44;92838.66;;;19.14;29.91
65376;BME280;51976;47.332;9.404;2023-01-26T04:30:11;92834.66;;;19.11;29.83
65376;BME280;51976;47.332;9.404;2023-01-26T04:32:38;92831.13;;;19.11;29.67
65376;BME280;51976;47.332;9.404;2023-01-26T04:35:04;92832.72;;;19.12;29.89
65376;BME280;51976;47.332;9.404;2023-01-26T04:37:30;92819.06;;;19.12;29.88
65376;BME280;51976;47.332;9.404;2023-01-26T04:39:55;92827.25;;;19.12;29.79
65376;BME280;51976;47.332;9.404;2023-01-26T04:42:21;92813.91;;;19.10;29.77
65376;BME280;51976;47.332;9.404;2023-01-26T04:44:49;92810.06;;;19.11;30.04
65376;BME280;51976;47.332;9.404;2023-01-26T04:47:15;92810.84;;;19.12;29.87
65376;BME280;51976;47.332;9.404;2023-01-26T04:49:40;92809.38;;;19.14;29.98
65376;BME280;51976;47.332;9.404;2023-01-26T04:52:05;92803.78;;;19.11;29.85
65376;BME280;51976;47.332;9.404;2023-01-26T04:54:31;92804.59;;;19.11;29.62
65376;BME280;51976;47.332;9.404;2023-01-26T04:56:56;92809.25;;;19.11;29.75
65376;BME280;51976;47.332;9.404;2023-01-26T04:59:21;92806.06;;;19.09;29.77
65376;BME280;51976;47.332;9.404;2023-01-26T05:01:47;92803.00;;;19.10;29.71
65376;BME280;51976;47.332;9.404;2023-01-26T05:04:12;92801.84;;;19.11;29.83
65376;BME280;51976;47.332;9.404;2023-01-26T05:06:38;92799.47;;;19.10;29.48
65376;BME280;51976;47.332;9.404;2023-01-26T05:09:04;92794.31;;;19.08;29.83
65376;BME280;51976;47.332;9.404;2023-01-26T05:11:30;92802.19;;;19.10;29.87
65376;BME280;51976;47.332;9.404;2023-01-26T05:13:55;92804.47;;;19.08;29.80
65376;BME280;51976;47.332;9.404;2023-01-26T05:16:20;92808.78;;;19.09;29.80
65376;BME280;51976;47.332;9.404;2023-01-26T05:18:46;92809.59;;;19.09;29.72
65376;BME280;51976;47.332;9.404;2023-01-26T05:21:11;92812.66;;;19.08;29.71
65376;BME280;51976;47.332;9.404;2023-01-26T05:23:36;92804.78;;;19.06;29.84
65376;BME280;51976;47.332;9.404;2023-01-26T05:26:03;92805.94;;;19.05;29.88
65376;BME280;51976;47.332;9.404;2023-01-26T05:28:28;92809.78;;;19.04;29.82
65376;BME280;51976;47.332;9.404;2023-01-26T05:30:53;92819.59;;;19.05;29.52
65376;BME280;51976;47.332;9.404;2023-01-26T05:33:19;92817.66;;;19.06;29.60
65376;BME280;51976;47.332;9.404;2023-01-26T05:35:47;92818.00;;;19.04;29.94
65376;BME280;51976;47.332;9.404;2023-01-26T05:38:13;92813.78;;;19.07;29.67
65376;BME280;51976;47.332;9.404;2023-01-26T05:40:38;92816.84;;;19.05;29.87
65376;BME280;51976;47.332;9.404;2023-01-26T05:43:04;92814.44;;;19.04;29.83
65376;BME280;51976;47.332;9.404;2023-01-26T05:45:29;92818.00;;;19.04;29.81
65376;BME280;51976;47.332;9.404;2023-01-26T05:47:55;92808.19;;;19.03;29.75
65376;BME280;51976;47.332;9.404;2023-01-26T05:50:20;92818.00;;;19.04;29.68
65376;BME280;51976;47.332;9.404;2023-01-26T05:52:45;92814.91;;;19.06;29.64
65376;BME280;51976;47.332;9.404;2023-01-26T05:55:11;92813.66;;;19.03;29.76
65376;BME280;51976;47.332;9.404;2023-01-26T05:57:37;92813.66;;;19.03;29.82
65376;BME280;51976;47.332;9.404;2023-01-26T06:00:06;92821.53;;;19.05;29.94
65376;BME280;51976;47.332;9.404;2023-01-26T06:02:32;92823.13;;;19.06;29.64
65376;BME280;51976;47.332;9.404;2023-01-26T06:04:57;92815.72;;;19.06;29.50
65376;BME280;51976;47.332;9.404;2023-01-26T06:07:23;92820.38;;;19.06;29.78
65376;BME280;51976;47.332;9.404;2023-01-26T06:09:50;92808.00;;;19.08;29.81
65376;BME280;51976;47.332;9.404;2023-01-26T06:12:18;92806.53;;;19.11;29.61
65376;BME280;51976;47.332;9.404;2023-01-26T06:14:44;92807.78;;;19.13;29.72
65376;BME280;51976;47.332;9.404;2023-01-26T06:17:10;92804.69;;;19.15;29.55
65376;BME280;51976;47.332;9.404;2023-01-26T06:19:36;92810.28;;;19.18;29.75
65376;BME280;51976;47.332;9.404;2023-01-26T06:22:02;92807.69;;;19.22;29.52
65376;BME280;51976;47.332;9.404;2023-01-26T06:24:28;92801.09;;;19.23;29.51
65376;BME280;51976;47.332;9.404;2023-01-26T06:26:53;92802.34;;;19.25;29.51
65376;BME280;51976;47.332;9.404;2023-01-26T06:29:19;92796.88;;;19.25;29.69
65376;BME280;51976;47.332;9.404;2023-01-26T06:31:44;92805.53;;;19.27;29.83
65376;BME280;51976;47.332;9.404;2023-01-26T06:34:10;92802.81;;;19.27;29.61
65376;BME280;51976;47.332;9.404;2023-01-26T06:36:35;92809.22;;;19.32;29.63
65376;BME280;51976;47.332;9.404;2023-01-26T06:39:01;92806.81;;;19.30;29.60
65376;BME280;51976;47.332;9.404;2023-01-26T06:41:26;92808.06;;;19.33;29.69
65376;BME280;51976;47.332;9.404;2023-01-26T06:43:52;92815.94;;;19.34;29.61
65376;BME280;51976;47.332;9.404;2023-01-26T06:46:17;92813.22;;;19.34;29.65
65376;BME280;51976;47.332;9.404;2023-01-26T06:48:43;92819.00;;;19.33;29.52
65376;BME280;51976;47.332;9.404;2023-01-26T06:51:38;92809.00;;;19.37;29.56
65376;BME280;51976;47.332;9.404;2023-01-26T06:54:11;92809.47;;;19.39;29.44
65376;BME280;51976;47.332;9.404;2023-01-26T06:56:37;92819.59;;;19.38;29.43
65376;BME280;51976;47.332;9.404;2023-01-26T06:59:03;92818.00;;;19.37;29.54
65376;BME280;51976;47.332;9.404;2023-01-26T07:01:32;92809.47;;;19.39;29.46
65376;BME280;51976;47.332;9.404;2023-01-26T07:03:58;92815.41;;;19.41;29.64
65376;BME280;51976;47.332;9.404;2023-01-26T07:06:24;92815.41;;;19.41;29.45
65376;BME280;51976;47.332;9.404;2023-01-26T07:08:49;92814.25;;;19.42;29.38
65376;BME280;51976;47.332;9.404;2023-01-26T07:11:15;92810.72;;;19.41;29.58
65376;BME280;51976;47.332;9.404;2023-01-26T07:13:41;92815.84;;;19.43;29.61
65376;BME280;51976;47.332;9.404;2023-01-26T07:16:11;92816.28;;;19.45;29.44
65376;BME280;51976;47.332;9.404;2023-01-26T07:18:36;92815.50;;;19.44;29.44
65376;BME280;51976;47.332;9.404;2023-01-26T07:21:07;92815.16;;;19.46;29.60
65376;BME280;51976;47.332;9.404;2023-01-26T07:23:34;92805.50;;;19.48;29.49
65376;BME280;51976;47.332;9.404;2023-01-26T07:25:59;92808.38;;;19.52;29.55
65376;BME280;51976;47.332;9.404;2023-01-26T07:28:25;92798.38;;;19.56;29.65
65376;BME280;51976;47.332;9.404;2023-01-26T07:30:56;92804.50;;;19.53;29.25
65376;BME280;51976;47.332;9.404;2023-01-26T07:33:21;92810.44;;;19.55;29.44
65376;BME280;51976;47.332;9.404;2023-01-26T07:35:47;92802.38;;;19.58;29.94
65376;BME280;51976;47.332;9.404;2023-01-26T07:38:12;92809.22;;;19.65;29.81
65376;BME280;51976;47.332;9.404;2023-01-26T07:40:38;92805.00;;;19.67;29.83
65376;BME280;51976;47.332;9.404;2023-01-26T07:43:03;92806.59;;;19.68;30.11
65376;BME280;51976;47.332;9.404;2023-01-26T07:45:28;92805.91;;;19.71;30.11
65376;BME280;51976;47.332;9.404;2023-01-26T07:47:54;92800.44;;;19.71;30.33
65376;BME280;51976;47.332;9.404;2023-01-26T07:50:20;92804.44;;;19.74;30.50
65376;BME280;51976;47.332;9.404;2023-01-26T07:52:46;92806.81;;;19.75;30.70
65376;BME280;51976;47.332;9.404;2023-01-26T07:55:12;92801.00;;;19.77;30.65
65376;BME280;51976;47.332;9.404;2023-01-26T07:57:38;92799.09;;;19.77;31.06
65376;BME280;51976;47.332;9.404;2023-01-26T08:00:04;92793.72;;;19.81;30.74
65376;BME280;51976;47.332;9.404;2023-01-26T08:02:29;92795.66;;;19.80;31.16
65376;BME280;51976;47.332;9.404;2023-01-26T08:04:54;92796.94;;;19.83;30.93
65376;BME280;51976;47.332;9.404;2023-01-26T08:07:20;92789.97;;;19.85;31.01
65376;BME280;51976;47.332;9.404;2023-01-26T08:09:45;92792.25;;;19.83;31.45
65376;BME280;51976;47.332;9.404;2023-01-26T08:12:11;92795.31;;;19.82;31.53
65376;BME280;51976;47.332;9.404;2023-01-26T08:14:36;92793.84;;;19.84;31.38
65376;BME280;51976;47.332;9.404;2023-01-26T08:17:01;92785.66;;;19.84;31.73
65376;BME280;51976;47.332;9.404;2023-01-26T08:19:27;92781.44;;;19.87;32.30
65376;BME280;51976;47.332;9.404;2023-01-26T08:21:52;92776.75;;;19.87;31.41
65376;BME280;51976;47.332;9.404;2023-01-26T08:24:19;92778.34;;;19.88;31.80
65376;BME280;51976;47.332;9.404;2023-01-26T08:26:44;92774.47;;;19.89;31.83
65376;BME280;51976;47.332;9.404;2023-01-26T08:29:09;92779.97;;;19.89;31.73
65376;BME280;51976;47.332;9.404;2023-01-26T08:31:36;92783.16;;;19.91;31.93
65376;BME280;51976;47.332;9.404;2023-01-26T08:34:01;92784.75;;;19.92;32.10
65376;BME280;51976;47.332;9.404;2023-01-26T08:36:27;92785.53;;;19.93;32.27
65376;BME280;51976;47.332;9.404;2023-01-26T08:38:52;92777.81;;;19.95;32.25
65376;BME280;51976;47.332;9.404;2023-01-26T08:41:18;92775.50;;;19.97;32.26
65376;BME280;51976;47.332;9.404;2023-01-26T08:43:43;92772.41;;;19.99;32.39
65376;BME280;51976;47.332;9.404;2023-01-26T08:46:10;92783.69;;;19.97;32.52
65376;BME280;51976;47.332;9.404;2023-01-26T08:48:35;92776.28;;;19.98;32.63
65376;BME280;51976;47.332;9.404;2023-01-26T08:51:02;92778.22;;;19.97;32.64
65376;BME280;51976;47.332;9.404;2023-01-26T08:53:31;92780.97;;;19.97;32.76
65376;BME280;51976;47.332;9.404;2023-01-26T08:55:59;92778.22;;;19.97;32.61
65376;BME280;51976;47.332;9.404;2023-01-26T08:58:24;92779.03;;;19.98;32.75
65376;BME280;51976;47.332;9.404;2023-01-26T09:00:50;92774.72;;;19.97;32.76
65376;BME280;51976;47.332;9.404;2023-01-26T09:03:15;92765.34;;;19.98;32.97
65376;BME280;51976;47.332;9.404;2023-01-26T09:05:41;92773.94;;;19.96;32.69
65376;BME280;51976;47.332;9.404;2023-01-26T09:08:08;92782.94;;;19.97;32.27
65376;BME280;51976;47.332;9.404;2023-01-26T09:10:33;92780.97;;;19.97;32.04
65376;BME280;51976;47.332;9.404;2023-01-26T09:13:00;92782.94;;;19.97;32.22
65376;BME280;51976;47.332;9.404;2023-01-26T09:15:26;92784.50;;;19.98;32.36
65376;BME280;51976;47.332;9.404;2023-01-26T09:17:52;92782.56;;;19.98;32.24
65376;BME280;51976;47.332;9.404;2023-01-26T09:20:18;92788.03;;;19.98;32.12
65376;BME280;51976;47.332;9.404;2023-01-26T09:22:44;92780.97;;;19.97;32.15
65376;BME280;51976;47.332;9.404;2023-01-26T09:25:10;92788.03;;;19.98;32.17
65376;BME280;51976;47.332;9.404;2023-01-26T09:27:36;92788.03;;;19.98;32.10
65376;BME280;51976;47.332;9.404;2023-01-26T09:30:03;92789.97;;;19.98;32.21
65376;BME280;51976;47.332;9.404;2023-01-26T09:32:29;92791.13;;;19.97;31.76
65376;BME280;51976;47.332;9.404;2023-01-26T09:34:54;92786.81;;;19.96;31.99
65376;BME280;51976;47.332;9.404;2023-01-26T09:37:20;92785.28;;;19.98;31.76
65376;BME280;51976;47.332;9.404;2023-01-26T09:39:46;92783.34;;;19.99;31.90
65376;BME280;51976;47.332;9.404;2023-01-26T09:42:45;92787.22;;;19.98;31.87
65376;BME280;51976;47.332;9.404;2023-01-26T09:45:22;92784.97;;;20.00;31.86
65376;BME280;51976;47.332;9.404;2023-01-26T09:48:18;92786.56;;;20.01;31.81
65376;BME280;51976;47.332;9.404;2023-01-26T09:50:59;92777.88;;;19.99;31.91
65376;BME280;51976;47.332;9.404;2023-01-26T09:53:36;92779.47;;;20.00;31.74
65376;BME280;51976;47.332;9.404;2023-01-26T09:56:04;92776.41;;;20.01;31.76
65376;BME280;51976;47.332;9.404;2023-01-26T09:58:39;92768.53;;;20.00;31.58
65376;BME280;51976;47.332;9.404;2023-01-26T10:01:13;92775.59;;;20.01;31.76
65376;BME280;51976;47.332;9.404;2023-01-26T10:03:49;92775.59;;;20.01;31.76
65376;BME280;51976;47.332;9.404;2023-01-26T10:06:26;92767.06;;;20.02;31.59
65376;BME280;51976;47.332;9.404;2023-01-26T10:08:55;92774.94;;;20.04;31.75
65376;BME280;51976;47.332;9.404;2023-01-26T10:11:34;92758.84;;;20.02;31.64
65376;BME280;51976;47.332;9.404;2023-01-26T10:14:10;92774.13;;;20.03;31.54
65376;BME280;51976;47.332;9.404;2023-01-26T10:16:37;92758.97;;;20.06;31.64
65376;BME280;51976;47.332;9.404;2023-01-26T10:19:16;92751.91;;;20.05;31.43
65376;BME280;51976;47.332;9.404;2023-01-26T10:21:48;92758.50;;;20.04;31.70
65376;BME280;51976;47.332;9.404;2023-01-26T10:24:16;92752.25;;;20.03;31.48
65376;BME280;51976;47.332;9.404;2023-01-26T10:26:44;92758.50;;;20.04;31.40
65376;BME280;51976;47.332;9.404;2023-01-26T10:29:13;92756.22;;;20.06;31.43
65376;BME280;51976;47.332;9.404;2023-01-26T10:31:40;92753.84;;;20.04;31.28
65376;BME280;51976;47.332;9.404;2023-01-26T10:34:13;92753.50;;;20.06;31.31
65376;BME280;51976;47.332;9.404;2023-01-26T10:36:40;92753.50;;;20.06;31.35
65376;BME280;51976;47.332;9.404;2023-01-26T10:39:08;92749.16;;;20.05;31.29
65376;BME280;51976;47.332;9.404;2023-01-26T10:41:34;92754.28;;;20.06;31.21
65376;BME280;51976;47.332;9.404;2023-01-26T10:44:21;92750.75;;;20.06;31.44
65376;BME280;51976;47.332;9.404;2023-01-26T10:47:05;92755.44;;;20.05;31.41
65376;BME280;51976;47.332;9.404;2023-01-26T10:49:30;92755.44;;;20.05;31.41
65376;BME280;51976;47.332;9.404;2023-01-26T10:52:15;92751.56;;;20.06;31.27
65376;BME280;51976;47.332;9.404;2023-01-26T10:54:42;92753.50;;;20.06;31.15
65376;BME280;51976;47.332;9.404;2023-01-26T10:57:21;92753.50;;;20.06;31.33
65376;BME280;51976;47.332;9.404;2023-01-26T10:59:56;92755.09;;;20.07;31.18
65376;BME280;51976;47.332;9.404;2023-01-26T11:02:29;92747.69;;;20.07;31.15
65376;BME280;51976;47.332;9.404;2023-01-26T11:05:17;92744.50;;;20.05;31.50
65376;BME280;51976;47.332;9.404;2023-01-26T11:07:45;92755.44;;;20.05;31.41
65376;BME280;51976;47.332;9.404;2023-01-26T11:10:24;92749.97;;;20.05;31.06
65376;BME280;51976;47.332;9.404;2023-01-26T11:12:51;92748.47;;;20.08;31.38
65376;BME280;51976;47.332;9.404;2023-01-26T11:15:35;92751.22;;;20.08;30.99
65376;BME280;51976;47.332;9.404;2023-01-26T11:21:12;92746.88;;;20.07;31.17
65376;BME280;51976;47.332;9.404;2023-01-26T11:23:50;92746.88;;;20.07;31.09
65376;BME280;51976;47.332;9.404;2023-01-26T11:26:26;92752.34;;;20.07;31.18
65376;BME280;51976;47.332;9.404;2023-01-26T11:29:21;92745.28;;;20.06;30.95
65376;BME280;51976;47.332;9.404;2023-01-26T11:32:13;92743.00;;;20.08;31.21
65376;BME280;51976;47.332;9.404;2023-01-26T11:38:00;92740.63;;;20.06;31.15
65376;BME280;51976;47.332;9.404;2023-01-26T11:40:46;92739.81;;;20.06;31.00
65376;BME280;51976;47.332;9.404;2023-01-26T11:46:46;92739.81;;;20.06;30.80
65376;BME280;51976;47.332;9.404;2023-01-26T11:49:50;92740.63;;;20.06;31.16
65376;BME280;51976;47.332;9.404;2023-01-26T11:52:45;92734.34;;;20.06;31.06
65376;BME280;51976;47.332;9.404;2023-01-26T11:55:23;92738.66;;;20.07;31.02
65376;BME280;51976;47.332;9.404;2023-01-26T11:58:11;92732.06;;;20.08;31.08
65376;BME280;51976;47.332;9.404;2023-01-26T12:00:47;92728.19;;;20.09;30.90
65376;BME280;51976;47.332;9.404;2023-01-26T12:03:25;92729.66;;;20.06;30.97
65376;BME280;51976;47.332;9.404;2023-01-26T12:05:56;92727.38;;;20.08;30.90
65376;BME280;51976;47.332;9.404;2023-01-26T12:08:33;92725.78;;;20.07;30.94
65376;BME280;51976;47.332;9.404;2023-01-26T12:11:07;92710.97;;;20.08;30.91
65376;BME280;51976;47.332;9.404;2023-01-26T12:17:19;92716.09;;;20.10;30.84
65376;BME280;51976;47.332;9.404;2023-01-26T12:20:18;92716.09;;;20.10;30.78
65376;BME280;51976;47.332;9.404;2023-01-26T12:23:09;92713.38;;;20.10;30.93
65376;BME280;51976;47.332;9.404;2023-01-26T12:25:40;92715.75;;;20.11;31.03
65376;BME280;51976;47.332;9.404;2023-01-26T12:28:23;92709.47;;;20.11;30.67
65376;BME280;51976;47.332;9.404;2023-01-26T12:31:17;92711.09;;;20.12;30.59
65376;BME280;51976;47.332;9.404;2023-01-26T12:33:45;92701.72;;;20.13;30.74
65376;BME280;51976;47.332;9.404;2023-01-26T12:36:40;92705.16;;;20.10;30.99
65376;BME280;51976;47.332;9.404;2023-01-26T12:39:15;92693.75;;;20.08;30.55
65376;BME280;51976;47.332;9.404;2023-01-26T12:42:18;92701.63;;;20.09;30.72
65376;BME280;51976;47.332;9.404;2023-01-26T12:44:57;92704.00;;;20.11;31.10
65376;BME280;51976;47.332;9.404;2023-01-26T12:47:40;92700.13;;;20.12;31.08
65376;BME280;51976;47.332;9.404;2023-01-26T12:50:30;92703.31;;;20.14;31.12
65376;BME280;51976;47.332;9.404;2023-01-26T12:53:04;92699.78;;;20.13;31.19
65376;BME280;51976;47.332;9.404;2023-01-26T12:55:39;92698.66;;;20.14;31.48
65376;BME280;51976;47.332;9.404;2023-01-26T12:58:25;92696.72;;;20.15;31.65
65376;BME280;51976;47.332;9.404;2023-01-26T13:01:01;92709.25;;;20.16;31.88
65376;BME280;51976;47.332;9.404;2023-01-26T13:03:31;92701.03;;;20.16;31.70
65376;BME280;51976;47.332;9.404;2023-01-26T13:06:01;92701.03;;;20.16;32.15
65376;BME280;51976;47.332;9.404;2023-01-26T13:08:58;92694.44;;;20.17;32.07
65376;BME280;51976;47.332;9.404;2023-01-26T13:11:49;92697.16;;;20.17;32.20
65376;BME280;51976;47.332;9.404;2023-01-26T13:17:40;92691.69;;;20.17;32.45
65376;BME280;51976;47.332;9.404;2023-01-26T13:20:24;92693.28;;;20.18;32.66
65376;BME280;51976;47.332;9.404;2023-01-26T13:22:51;92697.63;;;20.19;32.99
65376;BME280;51976;47.332;9.404;2023-01-26T13:25:28;92689.41;;;20.19;33.12
65376;BME280;51976;47.332;9.404;2023-01-26T13:28:02;92677.31;;;20.20;33.16
65376;BME280;51976;47.332;9.404;2023-01-26T13:30:35;92674.59;;;20.20;32.96
65376;BME280;51976;47.332;9.404;2023-01-26T13:33:15;92673.44;;;20.21;32.85
65376;BME280;51976;47.332;9.404;2023-01-26T13:35:43;92676.19;;;20.21;33.27